Etusivu
METAR-TAF:

METAR-TAF

Lentoasemat :

Haugesund, Norja

Leveyspiiri: 59-21N, Pituuspiiri: 005-13E, korkeus merenpinnasta: 2 m

Tämänhetkinen sää

Tämä raportti tehtiin 22 minuuttia sitten, kello 06.20 UTC
Tuuli 7 kn idästä
Lämpötila 13°C
Kosteus 94%
Ilmanpaine 1010 hPa
Näkyvyys 10 km tai enemmän
Hajanaisia pilviä 3800 ft:n korkeudessa
Hajonneita pilviä 5100 ft:n korkeudessa
heikkoa tihkusadetta

METAR: ENHD 240620Z 09007KT 9999 -DZ SCT038 BKN051 13/12 Q1010

Aika: 08:42 (06:42 UTC)

Sääennuste

Tämä raportti tehtiin 1 tunti ja 42 minuuttia sitten, kello 05.00 UTC
Ennuste voimassa 24. päivästä klo 06 UTC - 24. päivään klo 15 UTC
Tuuli 7 kn idästä
Näkyvyys 10 km tai enemmän
Muutamia pilviä 1500 ft:n korkeudessa
Hajonneita pilviä 4000 ft:n korkeudessa
heikkoa sadetta
Ajoittain
24. päivästä klo 06 UTC - 24. päivään klo 15 UTC
Hajonneita pilviä 1400 ft:n korkeudessa
sadetta

TAF: ENHD 240500Z 2406/2415 10007KT 9999 -RA FEW015 BKN040 TEMPO 2406/2415 RA BKN014

Säähavainnot ja -ennusteet yli 4000 lentoasemalta (METAR- ja TAF-raportit).

Käytössä olevat sääasemat on merkitty karttaan keltaisilla ja punaisilla pisteillä.

Aseta hiiri pisteen päälle nähdäksesi sääaseman nimen.

Klikkaa sitten nähdäksesi säähavainnot ja -ennusteet.

Kartan vaihtaminen: klikkaa mustalla rastilla varustettuja vihreitä pisteitä, niin voit zoomata sisään; viivalla varustettua vihreää pistettä, niin voit zoomata ulos tai vihreitä nuolia, niin pääset viereisille kartoille.


METAR-TAF: